Time;durP1;ratioP1;P1;durP2;ratioP2;P2;SDS_P1;SDS_P2;PMS_P1;PMS_P2;Temp;Humidity;BMP_temperature;BMP_pressure;BME280_temperature;BME280_humidity;BME280_pressure;Samples;Min_cycle;Max_cycle;Signal;HPM_P1;HPM_P2
2021/01/03 00:01:52;;;;;;;3.90;1.60;;;4.10;93.40;;;;;;5095081;28;20496;-70
2021/01/03 00:04:18;;;;;;;4.65;1.65;;;4.00;93.40;;;;;;5095613;28;20498;-70
2021/01/03 00:06:43;;;;;;;4.85;1.73;;;4.10;93.40;;;;;;5095507;28;20043;-70
2021/01/03 00:09:10;;;;;;;3.47;1.30;;;4.00;93.40;;;;;;5095532;28;20408;-70
2021/01/03 00:11:37;;;;;;;3.53;1.45;;;4.00;93.40;;;;;;5094969;28;20040;-70
2021/01/03 00:14:04;;;;;;;3.92;1.90;;;4.00;93.40;;;;;;5094912;28;20505;-70
2021/01/03 00:16:30;;;;;;;4.53;1.73;;;4.00;93.40;;;;;;5076505;28;20093;-70
2021/01/03 00:18:55;;;;;;;2.72;1.33;;;4.00;93.40;;;;;;5094763;28;20044;-70
2021/01/03 00:21:21;;;;;;;3.53;1.50;;;4.00;93.40;;;;;;5095293;28;20036;-70
2021/01/03 00:23:47;;;;;;;4.45;1.88;;;4.00;93.40;;;;;;5094888;28;20040;-69
2021/01/03 00:26:13;;;;;;;3.60;1.50;;;4.00;93.40;;;;;;5076330;28;20040;-70
2021/01/03 00:28:39;;;;;;;2.47;1.08;;;4.00;93.40;;;;;;5076368;28;20050;-70
2021/01/03 00:31:05;;;;;;;4.53;1.83;;;4.00;93.40;;;;;;5094520;28;20433;-70
2021/01/03 00:33:31;;;;;;;3.55;1.58;;;4.00;93.40;;;;;;5094799;28;20036;-70
2021/01/03 00:35:57;;;;;;;2.90;1.48;;;4.00;93.40;;;;;;5094229;28;20032;-70
2021/01/03 00:38:24;;;;;;;5.28;1.90;;;4.00;93.40;;;;;;5094302;28;20077;-70
2021/01/03 00:40:49;;;;;;;4.18;1.80;;;3.90;93.40;;;;;;5094885;28;20040;-69
2021/01/03 00:43:15;;;;;;;4.43;1.67;;;4.00;93.40;;;;;;5094278;28;20042;-70
2021/01/03 00:45:42;;;;;;;3.50;1.60;;;4.00;93.40;;;;;;5094675;28;20036;-69
2021/01/03 00:48:09;;;;;;;4.32;1.58;;;4.00;93.40;;;;;;5094784;28;20044;-70
2021/01/03 00:50:34;;;;;;;3.45;1.50;;;4.00;93.40;;;;;;5094519;28;20040;-70
2021/01/03 00:53:01;;;;;;;3.58;1.42;;;4.00;93.40;;;;;;5094038;28;20040;-70
2021/01/03 00:55:26;;;;;;;4.85;1.70;;;4.00;93.40;;;;;;5094111;28;20047;-70
2021/01/03 00:57:52;;;;;;;4.28;1.60;;;4.00;93.40;;;;;;5093582;28;20036;-70
2021/01/03 01:00:23;;;;;;;4.28;1.55;;;3.90;93.30;;;;;;5093951;28;20036;-70
2021/01/03 01:02:49;;;;;;;3.83;1.60;;;4.00;93.40;;;;;;5075871;28;20044;-70
2021/01/03 01:05:16;;;;;;;5.60;1.73;;;3.90;93.30;;;;;;5094342;28;20127;-70
2021/01/03 01:07:42;;;;;;;3.20;1.42;;;3.90;93.40;;;;;;5093763;28;20405;-70
2021/01/03 01:10:13;;;;;;;4.53;1.55;;;4.00;93.40;;;;;;5094171;28;20123;-70
2021/01/03 01:12:39;;;;;;;3.75;1.85;;;3.90;93.40;;;;;;5093976;28;20038;-70
2021/01/03 01:15:07;;;;;;;2.63;1.20;;;3.90;93.30;;;;;;5093792;28;20123;-70
2021/01/03 01:17:33;;;;;;;3.63;1.30;;;3.90;93.40;;;;;;5093684;28;20032;-70
2021/01/03 01:19:58;;;;;;;3.65;1.48;;;3.90;93.40;;;;;;5094163;28;20048;-70
2021/01/03 01:22:24;;;;;;;4.25;1.60;;;3.90;93.40;;;;;;5093872;28;20123;-70
2021/01/03 01:24:50;;;;;;;3.83;1.48;;;3.90;93.40;;;;;;5076317;28;20032;-70
2021/01/03 01:27:16;;;;;;;4.97;1.80;;;3.90;93.40;;;;;;5094248;28;20044;-70
2021/01/03 01:29:41;;;;;;;2.97;1.40;;;3.90;93.40;;;;;;5076270;28;20572;-70
2021/01/03 01:32:07;;;;;;;2.17;1.17;;;3.90;93.40;;;;;;5058975;28;20075;-70
2021/01/03 01:34:33;;;;;;;4.28;1.80;;;3.90;93.40;;;;;;5093569;28;20031;-70
2021/01/03 01:36:59;;;;;;;4.43;1.75;;;3.90;93.40;;;;;;5075668;28;20052;-70
2021/01/03 01:39:25;;;;;;;5.38;1.67;;;3.90;93.40;;;;;;5093681;28;20541;-70
2021/01/03 01:41:50;;;;;;;4.70;2.00;;;3.90;93.40;;;;;;5094006;28;20428;-69
2021/01/03 01:44:16;;;;;;;5.05;1.98;;;3.90;93.40;;;;;;5093499;28;20046;-70
2021/01/03 01:46:57;;;;;;;3.75;1.60;;;3.90;93.40;;;;;;5093444;28;20032;-71
2021/01/03 01:49:22;;;;;;;3.63;1.53;;;3.90;93.40;;;;;;5093388;28;20040;-70
2021/01/03 01:51:52;;;;;;;3.22;1.30;;;3.90;93.40;;;;;;5074383;28;20090;-70
2021/01/03 01:54:26;;;;;;;4.05;1.55;;;3.90;93.40;;;;;;5093304;28;20044;-70
2021/01/03 01:57:01;;;;;;;3.38;1.60;;;3.90;93.40;;;;;;5093235;28;20054;-70
2021/01/03 01:59:44;;;;;;;3.22;1.30;;;3.90;93.40;;;;;;5093324;28;20043;-70
2021/01/03 02:02:16;;;;;;;3.33;1.63;;;3.90;93.40;;;;;;5093288;28;20078;-70
2021/01/03 02:04:54;;;;;;;4.47;1.80;;;3.90;93.40;;;;;;5093450;28;20051;-70
2021/01/03 02:07:35;;;;;;;3.55;1.52;;;3.90;93.40;;;;;;5093672;28;20127;-70
2021/01/03 02:10:25;;;;;;;3.10;1.42;;;3.80;93.30;;;;;;5093210;28;20063;-70
2021/01/03 02:13:21;;;;;;;3.90;1.60;;;3.80;93.30;;;;;;5093374;28;20533;-70
2021/01/03 02:15:47;;;;;;;3.08;1.50;;;3.80;93.30;;;;;;5074357;28;20040;-70
2021/01/03 02:18:14;;;;;;;3.80;1.52;;;3.80;93.30;;;;;;5075428;28;20044;-70
2021/01/03 02:21:03;;;;;;;3.13;1.27;;;3.90;93.40;;;;;;5093419;28;20099;-70
2021/01/03 02:23:45;;;;;;;3.72;1.52;;;3.90;93.30;;;;;;5092825;28;20067;-71
2021/01/03 02:26:13;;;;;;;4.30;1.50;;;3.80;93.30;;;;;;5092777;28;20083;-70
2021/01/03 02:28:43;;;;;;;3.70;1.40;;;3.90;93.30;;;;;;5092638;28;20075;-70
2021/01/03 02:31:12;;;;;;;3.25;1.50;;;3.90;93.30;;;;;;5093103;28;20051;-70
2021/01/03 02:33:42;;;;;;;3.88;1.60;;;3.90;93.30;;;;;;5073688;28;20467;-70
2021/01/03 02:36:30;;;;;;;3.00;1.42;;;3.80;93.20;;;;;;5093059;28;20505;-70
2021/01/03 02:39:11;;;;;;;4.20;1.33;;;3.80;93.30;;;;;;5092798;28;20048;-70
2021/01/03 02:41:36;;;;;;;3.85;1.50;;;3.80;93.20;;;;;;5092596;28;20047;-70
2021/01/03 02:44:03;;;;;;;3.72;1.60;;;3.80;93.30;;;;;;5092566;28;20039;-70
2021/01/03 02:46:29;;;;;;;3.78;1.30;;;3.80;93.30;;;;;;5092349;28;20036;-70
2021/01/03 02:48:55;;;;;;;3.33;1.50;;;3.90;93.30;;;;;;5092328;28;20043;-70
2021/01/03 02:51:28;;;;;;;3.63;1.65;;;3.80;93.30;;;;;;5092424;28;20035;-71
2021/01/03 02:53:54;;;;;;;3.92;1.60;;;3.80;93.30;;;;;;5092690;28;20390;-70
2021/01/03 02:56:19;;;;;;;2.95;1.40;;;3.80;93.30;;;;;;5092770;28;20044;-70
2021/01/03 02:58:45;;;;;;;2.25;1.25;;;3.80;93.50;;;;;;5092680;28;20101;-70
2021/01/03 03:01:11;;;;;;;4.22;1.70;;;3.80;93.30;;;;;;5092394;28;20131;-69
2021/01/03 03:03:37;;;;;;;5.05;1.80;;;3.80;93.20;;;;;;5074165;28;20101;-70
2021/01/03 03:06:02;;;;;;;3.35;1.23;;;3.80;93.30;;;;;;5092617;28;20089;-70
2021/01/03 03:08:28;;;;;;;3.80;1.40;;;3.80;93.30;;;;;;5092688;28;20048;-71
2021/01/03 03:10:54;;;;;;;3.53;1.60;;;3.80;93.30;;;;;;5092573;28;20032;-71
2021/01/03 03:13:19;;;;;;;3.00;1.50;;;3.90;93.30;;;;;;5092640;28;20370;-70
2021/01/03 03:15:45;;;;;;;4.47;1.75;;;3.90;93.30;;;;;;5092047;28;20035;-70
2021/01/03 03:18:11;;;;;;;2.85;1.38;;;3.80;93.30;;;;;;5092424;28;20036;-70
2021/01/03 03:20:37;;;;;;;4.43;1.92;;;3.90;93.30;;;;;;5091449;28;20043;-70
2021/01/03 03:23:03;;;;;;;3.55;1.50;;;3.80;93.30;;;;;;5092465;28;20036;-71
2021/01/03 03:25:29;;;;;;;3.40;1.63;;;3.90;93.30;;;;;;5091914;28;20044;-70
2021/01/03 03:27:54;;;;;;;3.92;1.63;;;3.90;93.30;;;;;;5092022;28;20043;-70
2021/01/03 03:30:22;;;;;;;4.65;1.67;;;3.80;93.30;;;;;;5092013;28;20040;-70
2021/01/03 03:32:52;;;;;;;4.43;1.73;;;3.80;93.20;;;;;;5091783;28;20032;-70
2021/01/03 03:35:22;;;;;;;6.22;2.08;;;3.80;93.20;;;;;;5091809;28;20090;-70
2021/01/03 03:37:48;;;;;;;3.88;1.60;;;3.80;93.20;;;;;;5091952;28;20378;-70
2021/01/03 03:40:14;;;;;;;7.15;1.90;;;3.90;93.30;;;;;;5092338;28;20055;-70
2021/01/03 03:42:40;;;;;;;3.35;1.50;;;3.80;93.20;;;;;;5092121;28;20040;-70
2021/01/03 03:45:08;;;;;;;5.55;2.05;;;3.80;93.30;;;;;;5092229;28;20444;-71
2021/01/03 03:47:33;;;;;;;4.45;1.70;;;3.80;93.30;;;;;;5092200;28;20044;-70
2021/01/03 03:49:59;;;;;;;4.95;2.00;;;3.80;93.30;;;;;;5091982;28;20093;-71
2021/01/03 03:52:25;;;;;;;5.03;1.80;;;3.80;93.30;;;;;;5091808;28;20039;-70
2021/01/03 03:54:50;;;;;;;3.88;1.55;;;3.80;93.30;;;;;;5091678;28;20032;-70
2021/01/03 03:57:16;;;;;;;3.95;1.77;;;3.80;93.30;;;;;;5091650;28;20490;-71
2021/01/03 03:59:42;;;;;;;5.03;1.52;;;3.80;93.30;;;;;;5073575;28;20044;-69
2021/01/03 04:02:08;;;;;;;4.38;1.60;;;3.80;93.30;;;;;;5092125;28;20055;-70
2021/01/03 04:04:33;;;;;;;4.47;1.92;;;3.80;93.40;;;;;;5092109;28;20052;-69
2021/01/03 04:07:00;;;;;;;4.85;1.70;;;3.80;93.40;;;;;;5091426;28;20040;-70
2021/01/03 04:09:25;;;;;;;4.03;1.70;;;3.80;93.40;;;;;;5091909;28;20036;-70
2021/01/03 04:11:52;;;;;;;5.30;1.60;;;3.80;93.30;;;;;;5091285;28;20058;-70
2021/01/03 04:14:22;;;;;;;5.03;2.00;;;3.80;93.30;;;;;;5091458;28;20036;-71
2021/01/03 04:16:50;;;;;;;5.28;1.98;;;3.80;93.30;;;;;;5091251;28;20050;-70
2021/01/03 04:19:16;;;;;;;3.83;1.73;;;3.80;93.30;;;;;;5091430;28;20051;-70
2021/01/03 04:21:42;;;;;;;6.65;1.98;;;3.80;93.30;;;;;;5091518;28;20040;-70
2021/01/03 04:24:09;;;;;;;4.13;1.80;;;3.80;93.30;;;;;;5072731;28;20055;-70
2021/01/03 04:26:35;;;;;;;6.18;2.22;;;3.80;93.30;;;;;;5091098;28;20044;-71
2021/01/03 04:29:01;;;;;;;5.85;1.95;;;3.80;93.30;;;;;;5091458;28;20493;-70
2021/01/03 04:31:26;;;;;;;5.55;1.85;;;3.80;93.30;;;;;;5091598;28;20036;-70
2021/01/03 04:33:52;;;;;;;3.33;1.35;;;3.80;93.30;;;;;;5094357;28;20127;-70
2021/01/03 04:36:19;;;;;;;5.20;1.70;;;3.70;93.30;;;;;;5094544;28;20109;-71
2021/01/03 04:38:45;;;;;;;4.68;2.10;;;3.80;93.30;;;;;;5094419;28;20055;-70
2021/01/03 04:41:17;;;;;;;5.65;1.85;;;3.80;93.30;;;;;;5094864;28;20127;-70
2021/01/03 04:43:43;;;;;;;5.57;1.90;;;3.90;93.30;;;;;;5094428;28;20051;-69
2021/01/03 04:46:12;;;;;;;5.47;2.05;;;3.80;93.30;;;;;;5076155;28;20401;-70
2021/01/03 04:48:38;;;;;;;3.70;1.83;;;3.80;93.30;;;;;;5094906;28;20824;-70
2021/01/03 04:51:24;;;;;;;3.78;1.42;;;3.80;93.30;;;;;;5094111;28;20416;-70
2021/01/03 04:53:58;;;;;;;4.55;1.80;;;3.90;93.30;;;;;;5094156;28;20049;-70
2021/01/03 04:56:49;;;;;;;4.25;1.52;;;3.80;93.30;;;;;;5094179;28;20075;-70
2021/01/03 04:59:46;;;;;;;3.43;1.73;;;3.90;93.30;;;;;;5094752;28;20040;-70
2021/01/03 05:02:47;;;;;;;4.03;1.92;;;3.80;93.30;;;;;;5094813;28;20165;-69
2021/01/03 05:05:37;;;;;;;5.25;1.90;;;3.80;93.30;;;;;;5094396;28;20044;-70
2021/01/03 05:08:20;;;;;;;4.10;1.58;;;3.80;93.30;;;;;;5094228;28;20517;-69
2021/01/03 05:10:46;;;;;;;3.20;1.42;;;3.80;93.30;;;;;;5094605;28;20032;-70
2021/01/03 05:13:34;;;;;;;3.88;1.55;;;3.80;93.30;;;;;;5094414;28;20032;-70
2021/01/03 05:16:00;;;;;;;4.80;1.98;;;3.80;93.30;;;;;;5094667;28;20089;-70
2021/01/03 05:18:26;;;;;;;3.95;1.67;;;3.80;93.30;;;;;;5094256;28;20039;-70
2021/01/03 05:20:55;;;;;;;4.65;1.80;;;3.80;93.30;;;;;;5094021;28;20375;-70
2021/01/03 05:23:24;;;;;;;5.75;2.00;;;3.80;93.30;;;;;;5094627;28;20046;-70
2021/01/03 05:25:51;;;;;;;3.45;1.67;;;3.90;93.30;;;;;;5094392;28;20039;-70
2021/01/03 05:28:28;;;;;;;4.80;1.90;;;3.90;93.30;;;;;;5094178;28;20044;-70
2021/01/03 05:31:18;;;;;;;5.15;1.80;;;3.90;93.30;;;;;;5094410;28;20494;-70
2021/01/03 05:33:54;;;;;;;4.60;1.88;;;3.80;93.30;;;;;;5093948;28;20075;-70
2021/01/03 05:36:42;;;;;;;5.40;2.17;;;3.70;93.20;;;;;;5093966;28;20052;-70
2021/01/03 05:39:27;;;;;;;4.65;1.95;;;3.80;93.20;;;;;;5074554;28;20090;-70
2021/01/03 05:42:14;;;;;;;5.05;2.00;;;3.80;93.20;;;;;;5093548;28;20075;-71
2021/01/03 05:44:43;;;;;;;4.82;2.05;;;3.80;93.30;;;;;;5093401;28;20044;-70
2021/01/03 05:47:25;;;;;;;5.25;2.00;;;3.80;93.20;;;;;;5093844;28;20071;-70
2021/01/03 05:50:20;;;;;;;5.30;1.92;;;3.80;93.20;;;;;;5093674;28;20032;-70
2021/01/03 05:53:11;;;;;;;3.50;1.50;;;3.80;93.30;;;;;;5093368;28;20032;-70
2021/01/03 05:55:38;;;;;;;4.53;1.70;;;3.80;93.20;;;;;;5078429;28;20071;-69
2021/01/03 05:58:21;;;;;;;3.00;1.58;;;3.80;93.20;;;;;;5093945;28;20040;-69
2021/01/03 06:00:47;;;;;;;4.05;1.77;;;3.80;93.20;;;;;;5093346;28;20036;-71
2021/01/03 06:03:30;;;;;;;5.22;2.10;;;3.80;93.20;;;;;;5093924;28;20044;-70
2021/01/03 06:06:11;;;;;;;4.55;1.88;;;3.90;93.20;;;;;;5093268;28;20509;-70
2021/01/03 06:08:40;;;;;;;5.57;2.15;;;3.80;93.20;;;;;;5093309;28;20068;-71
2021/01/03 06:11:17;;;;;;;4.82;2.05;;;3.80;93.20;;;;;;5093449;28;20066;-71
2021/01/03 06:13:46;;;;;;;4.70;1.80;;;3.80;93.20;;;;;;5093144;28;20036;-71
2021/01/03 06:16:12;;;;;;;4.55;2.03;;;3.80;93.20;;;;;;5093594;28;20036;-71
2021/01/03 06:18:44;;;;;;;4.03;1.83;;;3.80;93.40;;;;;;5093845;28;20059;-70
2021/01/03 06:21:25;;;;;;;3.35;1.70;;;3.80;93.20;;;;;;5093260;28;20045;-70
2021/01/03 06:24:01;;;;;;;5.07;1.65;;;3.80;93.20;;;;;;5093498;28;20032;-70
2021/01/03 06:26:33;;;;;;;3.38;1.75;;;3.80;93.20;;;;;;5093655;28;20151;-70
2021/01/03 06:29:05;;;;;;;4.85;2.05;;;3.80;93.20;;;;;;5093230;28;20050;-70
2021/01/03 06:31:58;;;;;;;4.97;2.28;;;3.80;93.20;;;;;;5092864;28;20111;-70
2021/01/03 06:34:40;;;;;;;4.22;1.90;;;3.80;93.20;;;;;;5093043;28;20044;-70
2021/01/03 06:37:21;;;;;;;3.67;1.63;;;3.80;93.20;;;;;;5092885;28;20059;-70
2021/01/03 06:39:59;;;;;;;2.78;1.30;;;3.80;93.20;;;;;;5093169;28;20040;-70
2021/01/03 06:42:56;;;;;;;5.43;1.98;;;3.80;93.10;;;;;;5092598;28;20048;-70
2021/01/03 06:45:46;;;;;;;4.85;1.92;;;3.80;93.20;;;;;;5077639;28;20046;-70
2021/01/03 06:48:36;;;;;;;4.53;1.83;;;3.80;93.20;;;;;;5092475;28;20073;-70
2021/01/03 06:51:26;;;;;;;4.70;2.10;;;3.80;93.20;;;;;;5092635;28;20047;-70
2021/01/03 06:54:16;;;;;;;4.93;2.05;;;3.80;93.10;;;;;;5092586;28;20036;-70
2021/01/03 06:57:02;;;;;;;4.18;1.77;;;3.80;93.10;;;;;;5092587;28;20093;-70
2021/01/03 06:59:57;;;;;;;4.57;2.03;;;3.70;93.10;;;;;;5089183;28;20127;-70
2021/01/03 07:02:23;;;;;;;3.75;1.80;;;3.80;93.10;;;;;;5092438;28;20044;-70
2021/01/03 07:04:49;;;;;;;5.05;1.73;;;3.80;93.10;;;;;;5092397;28;20059;-70
2021/01/03 07:07:21;;;;;;;4.72;1.85;;;3.90;93.10;;;;;;5093022;28;20486;-70
2021/01/03 07:10:01;;;;;;;4.65;1.80;;;3.80;93.10;;;;;;5093077;28;20040;-70
2021/01/03 07:12:41;;;;;;;3.13;1.80;;;3.80;93.10;;;;;;5092832;28;20040;-70
2021/01/03 07:15:15;;;;;;;4.45;1.90;;;3.80;93.10;;;;;;5092542;28;20051;-71
2021/01/03 07:17:59;;;;;;;5.07;1.85;;;3.90;93.10;;;;;;5092491;28;20050;-70
2021/01/03 07:20:33;;;;;;;3.15;1.60;;;3.80;93.10;;;;;;5092470;28;20063;-70
2021/01/03 07:23:27;;;;;;;2.92;1.40;;;3.80;93.10;;;;;;5092314;28;20071;-71
2021/01/03 07:26:07;;;;;;;2.65;1.30;;;3.80;93.10;;;;;;5092067;28;20063;-71
2021/01/03 07:28:39;;;;;;;4.78;1.95;;;3.80;93.10;;;;;;5092124;28;20486;-71
2021/01/03 07:31:29;;;;;;;4.75;1.85;;;3.80;93.10;;;;;;5092147;28;20402;-71
2021/01/03 07:34:20;;;;;;;4.32;1.80;;;3.80;93.10;;;;;;5092210;28;20036;-71
2021/01/03 07:36:59;;;;;;;3.85;1.88;;;3.80;93.10;;;;;;5092182;28;20040;-71
2021/01/03 07:39:28;;;;;;;2.97;1.75;;;3.80;93.10;;;;;;5091933;28;20063;-71
2021/01/03 07:42:18;;;;;;;3.55;1.63;;;3.90;93.10;;;;;;5091917;28;20088;-71
2021/01/03 07:44:45;;;;;;;3.78;1.60;;;3.90;93.10;;;;;;5092179;28;20405;-71
2021/01/03 07:47:10;;;;;;;5.07;1.70;;;3.80;93.00;;;;;;5092028;28;20060;-70
2021/01/03 07:49:41;;;;;;;2.83;1.55;;;3.80;93.00;;;;;;5091958;28;20032;-71
2021/01/03 07:52:34;;;;;;;5.20;1.83;;;3.80;93.00;;;;;;5092450;28;20032;-71
2021/01/03 07:55:00;;;;;;;4.18;1.55;;;3.80;93.00;;;;;;5091705;28;20350;-71
2021/01/03 07:57:26;;;;;;;3.10;1.38;;;3.80;93.10;;;;;;5092474;28;20133;-71
2021/01/03 07:59:54;;;;;;;4.88;1.90;;;3.80;93.00;;;;;;5092405;28;20086;-71
2021/01/03 08:02:26;;;;;;;5.03;1.85;;;3.80;93.00;;;;;;5092477;28;20040;-71
2021/01/03 08:04:55;;;;;;;3.00;1.77;;;3.80;93.00;;;;;;5092290;28;20054;-71
2021/01/03 08:07:21;;;;;;;4.57;1.90;;;3.80;93.00;;;;;;5094547;28;20535;-71
2021/01/03 08:09:47;;;;;;;3.65;1.90;;;3.80;93.00;;;;;;5095295;28;20035;-71
2021/01/03 08:12:31;;;;;;;5.18;1.88;;;3.80;93.00;;;;;;5095309;28;20515;-70
2021/01/03 08:15:04;;;;;;;3.50;1.50;;;3.80;92.90;;;;;;5095128;28;20036;-70
2021/01/03 08:17:41;;;;;;;4.82;2.00;;;3.90;92.90;;;;;;5095600;28;20036;-71
2021/01/03 08:20:14;;;;;;;3.75;1.67;;;3.90;92.90;;;;;;5095584;28;20050;-70
2021/01/03 08:22:40;;;;;;;3.88;1.83;;;3.80;92.90;;;;;;5095319;28;20127;-71
2021/01/03 08:25:06;;;;;;;4.97;1.80;;;3.90;92.90;;;;;;5095131;28;20127;-70
2021/01/03 08:27:44;;;;;;;4.05;1.60;;;3.90;92.80;;;;;;5095173;28;20062;-70
2021/01/03 08:30:16;;;;;;;3.53;1.52;;;3.90;92.80;;;;;;5095117;28;20032;-70
2021/01/03 08:32:42;;;;;;;3.95;1.88;;;3.90;92.80;;;;;;5076665;28;20130;-70
2021/01/03 08:35:13;;;;;;;5.03;2.10;;;3.90;92.80;;;;;;5095545;28;20171;-70
2021/01/03 08:37:44;;;;;;;4.88;2.00;;;4.00;92.80;;;;;;5094826;28;20374;-71
2021/01/03 08:40:29;;;;;;;4.50;1.98;;;3.90;92.80;;;;;;5094762;28;20078;-73
2021/01/03 08:43:04;;;;;;;3.33;1.65;;;3.90;92.70;;;;;;5094978;28;20067;-73
2021/01/03 08:45:35;;;;;;;5.25;1.70;;;3.90;92.70;;;;;;5075887;28;20044;-72
2021/01/03 08:48:04;;;;;;;3.85;1.75;;;3.90;92.70;;;;;;5094380;28;20051;-73
2021/01/03 08:50:33;;;;;;;5.82;1.90;;;3.90;92.70;;;;;;5094928;28;20048;-73
2021/01/03 08:53:21;;;;;;;3.67;1.73;;;3.90;92.70;;;;;;5094662;28;20060;-72
2021/01/03 08:55:47;;;;;;;5.22;1.88;;;3.90;92.60;;;;;;5079731;28;20092;-70
2021/01/03 08:58:19;;;;;;;3.13;1.60;;;3.90;92.60;;;;;;5094801;28;20432;-72
2021/01/03 09:00:49;;;;;;;5.57;2.25;;;3.90;92.60;;;;;;5095007;28;20121;-71
2021/01/03 09:03:19;;;;;;;3.83;1.80;;;3.90;92.60;;;;;;5076527;28;20040;-72
2021/01/03 09:05:47;;;;;;;4.60;1.80;;;3.90;92.60;;;;;;5094888;28;20040;-72
2021/01/03 09:08:24;;;;;;;4.63;2.05;;;4.00;92.60;;;;;;5094587;28;20070;-72
2021/01/03 09:10:51;;;;;;;3.55;1.75;;;3.90;92.60;;;;;;5094864;28;20494;-70
2021/01/03 09:13:26;;;;;;;3.63;1.70;;;3.80;92.50;;;;;;5094280;28;20040;-70
2021/01/03 09:16:09;;;;;;;3.58;1.58;;;3.80;92.50;;;;;;5094230;28;20093;-70
2021/01/03 09:18:54;;;;;;;4.68;1.85;;;3.90;92.50;;;;;;5094123;28;20101;-71
2021/01/03 09:21:21;;;;;;;4.40;1.85;;;3.90;92.50;;;;;;5094010;28;20115;-71
2021/01/03 09:23:50;;;;;;;3.97;1.90;;;3.80;92.50;;;;;;5094224;28;20044;-72
2021/01/03 09:26:16;;;;;;;3.22;1.67;;;3.80;92.50;;;;;;5075688;28;20089;-71
2021/01/03 09:28:42;;;;;;;3.88;1.65;;;3.90;92.50;;;;;;5094218;28;20044;-71
2021/01/03 09:31:21;;;;;;;3.35;1.48;;;3.90;92.50;;;;;;5093872;28;20427;-70
2021/01/03 09:33:52;;;;;;;2.30;1.33;;;4.00;92.50;;;;;;5093805;28;20040;-71
2021/01/03 09:36:47;;;;;;;2.85;1.20;;;3.90;92.40;;;;;;5094166;28;20036;-71
2021/01/03 09:39:35;;;;;;;3.40;1.35;;;3.90;92.40;;;;;;5093900;28;20032;-72
2021/01/03 09:42:28;;;;;;;2.55;1.30;;;3.90;92.70;;;;;;5093728;28;20043;-71
2021/01/03 09:45:15;;;;;;;4.07;1.50;;;3.90;92.40;;;;;;5093638;28;20047;-72
2021/01/03 09:47:43;;;;;;;2.33;1.40;;;3.90;92.30;;;;;;5093563;28;20446;-72
2021/01/03 09:50:24;;;;;;;2.97;1.13;;;3.90;92.30;;;;;;5075500;28;20500;-72
2021/01/03 09:52:57;;;;;;;3.95;1.80;;;3.90;92.30;;;;;;5077517;28;20093;-71
2021/01/03 09:55:31;;;;;;;3.20;1.50;;;4.00;92.30;;;;;;5093667;28;20043;-70
2021/01/03 09:58:03;;;;;;;3.38;1.33;;;4.00;92.30;;;;;;5093972;28;20454;-70
2021/01/03 10:00:49;;;;;;;2.28;1.33;;;3.90;92.30;;;;;;5093365;28;20046;-71
2021/01/03 10:03:21;;;;;;;2.70;1.38;;;4.00;92.30;;;;;;5093637;28;20039;-71
2021/01/03 10:05:48;;;;;;;3.90;1.48;;;3.90;92.20;;;;;;5093927;28;20039;-72
2021/01/03 10:08:25;;;;;;;2.80;1.30;;;4.00;92.30;;;;;;5093461;28;20657;-72
2021/01/03 10:10:57;;;;;;;2.63;1.35;;;4.00;92.20;;;;;;5094029;28;20032;-71
2021/01/03 10:13:24;;;;;;;;;;;4.00;92.20;;;;;;5094368;28;20119;-74
2021/01/03 10:15:49;;;;;;;1.92;0.98;;;4.00;92.20;;;;;;5058563;28;19919;-72
2021/01/03 10:18:32;;;;;;;2.58;1.38;;;4.00;92.20;;;;;;5093920;28;20393;-72
2021/01/03 10:20:58;;;;;;;3.15;1.20;;;4.00;92.10;;;;;;5093794;28;20055;-72
2021/01/03 10:23:41;;;;;;;2.53;1.20;;;4.00;92.10;;;;;;5093227;28;20457;-72
2021/01/03 10:26:24;;;;;;;2.53;1.17;;;4.00;92.10;;;;;;5092983;28;20042;-72
2021/01/03 10:28:51;;;;;;;2.65;1.27;;;4.00;92.10;;;;;;5092908;28;20067;-71
2021/01/03 10:31:17;;;;;;;2.63;1.30;;;4.00;92.00;;;;;;5091706;28;20122;-70
2021/01/03 10:33:43;;;;;;;2.80;1.50;;;4.00;92.00;;;;;;5092698;28;20446;-71
2021/01/03 10:36:20;;;;;;;3.25;1.30;;;4.10;92.00;;;;;;5093202;28;20054;-70
2021/01/03 10:38:46;;;;;;;2.03;1.15;;;4.10;92.00;;;;;;5093062;28;20040;-69
2021/01/03 10:41:12;;;;;;;2.53;1.30;;;4.10;92.00;;;;;;5074606;28;20091;-70
2021/01/03 10:43:37;;;;;;;3.50;1.92;;;4.10;91.90;;;;;;5092693;28;20039;-70
2021/01/03 10:46:03;;;;;;;3.60;1.52;;;4.20;91.90;;;;;;5075353;28;20135;-70
2021/01/03 10:48:29;;;;;;;2.95;1.45;;;4.10;91.90;;;;;;5093080;28;20150;-71
2021/01/03 10:50:54;;;;;;;3.40;1.40;;;4.10;91.90;;;;;;5093124;28;20405;-71
2021/01/03 10:53:20;;;;;;;3.63;1.48;;;4.10;91.80;;;;;;5092776;28;20111;-71
2021/01/03 10:55:46;;;;;;;4.50;1.60;;;4.20;91.80;;;;;;5092742;28;20459;-71
2021/01/03 10:58:13;;;;;;;2.38;1.15;;;4.20;91.80;;;;;;5093226;28;20036;-71
2021/01/03 11:00:39;;;;;;;2.92;1.48;;;4.20;91.80;;;;;;5093157;28;20047;-71
2021/01/03 11:03:05;;;;;;;3.30;1.35;;;4.20;91.70;;;;;;5092819;28;20068;-71
2021/01/03 11:05:30;;;;;;;2.67;1.17;;;4.20;91.70;;;;;;5092998;28;20551;-71
2021/01/03 11:07:57;;;;;;;3.72;1.67;;;4.20;91.70;;;;;;5092949;28;20042;-73
2021/01/03 11:10:23;;;;;;;3.30;1.60;;;4.20;91.70;;;;;;5092968;28;20036;-71
2021/01/03 11:12:48;;;;;;;3.88;1.58;;;4.10;91.70;;;;;;5092369;28;20043;-70
2021/01/03 11:15:14;;;;;;;3.83;1.73;;;4.20;91.70;;;;;;5092387;28;20028;-70
2021/01/03 11:17:40;;;;;;;2.78;1.30;;;4.20;91.60;;;;;;5092776;28;20554;-70
2021/01/03 11:20:07;;;;;;;2.92;1.48;;;4.20;91.60;;;;;;5075092;28;20044;-70
2021/01/03 11:22:32;;;;;;;3.58;1.38;;;4.20;91.60;;;;;;5092888;28;20036;-70
2021/01/03 11:24:59;;;;;;;2.30;1.08;;;4.10;91.60;;;;;;5092548;28;20051;-74
2021/01/03 11:27:26;;;;;;;2.97;1.50;;;4.20;91.60;;;;;;5092333;28;20052;-71
2021/01/03 11:29:52;;;;;;;2.75;1.50;;;4.20;91.60;;;;;;5092256;28;20044;-71
2021/01/03 11:32:26;;;;;;;2.72;1.38;;;4.20;91.60;;;;;;5092183;28;20122;-71
2021/01/03 11:34:53;;;;;;;2.40;1.20;;;4.30;91.60;;;;;;5091993;28;20478;-72
2021/01/03 11:37:22;;;;;;;2.03;0.95;;;4.30;91.60;;;;;;5092156;28;20048;-71
2021/01/03 11:39:49;;;;;;;2.13;1.20;;;4.20;91.50;;;;;;5092286;28;20044;-71
2021/01/03 11:42:24;;;;;;;2.42;1.17;;;4.30;91.50;;;;;;5094633;28;20043;-71
2021/01/03 11:44:50;;;;;;;1.85;0.80;;;4.30;91.50;;;;;;5095359;28;20059;-71
2021/01/03 11:47:17;;;;;;;1.70;0.90;;;4.30;91.50;;;;;;5095356;28;20036;-72
2021/01/03 11:49:43;;;;;;;2.05;1.20;;;4.30;91.50;;;;;;5096068;28;20040;-70
2021/01/03 11:52:09;;;;;;;2.17;1.20;;;4.30;91.50;;;;;;5095755;28;20040;-70
2021/01/03 11:54:36;;;;;;;3.70;1.25;;;4.30;91.40;;;;;;5095940;28;20081;-70
2021/01/03 11:57:03;;;;;;;2.55;1.10;;;4.30;91.40;;;;;;5076419;28;20040;-70
2021/01/03 11:59:29;;;;;;;1.88;1.17;;;4.30;91.40;;;;;;5095594;28;20128;-70
2021/01/03 12:02:00;;;;;;;1.90;1.02;;;4.30;91.40;;;;;;5095410;28;20401;-70
2021/01/03 12:04:26;;;;;;;1.52;0.93;;;4.30;91.40;;;;;;5095454;28;20047;-70
2021/01/03 12:06:58;;;;;;;1.48;0.80;;;4.30;91.40;;;;;;5095682;28;20339;-71
2021/01/03 12:09:28;;;;;;;2.28;1.08;;;4.30;91.40;;;;;;5095533;28;20502;-70
2021/01/03 12:11:56;;;;;;;2.85;1.20;;;4.30;91.40;;;;;;5095390;28;20036;-70
2021/01/03 12:14:22;;;;;;;2.88;1.15;;;4.30;91.40;;;;;;5077142;28;20134;-71
2021/01/03 12:16:57;;;;;;;2.08;1.20;;;4.30;91.40;;;;;;5095658;28;20074;-70
2021/01/03 12:19:24;;;;;;;1.75;1.05;;;4.30;91.30;;;;;;5095335;28;20048;-70
2021/01/03 12:21:50;;;;;;;2.38;1.27;;;4.30;91.30;;;;;;5094783;28;20059;-71
2021/01/03 12:24:17;;;;;;;2.50;1.38;;;4.30;91.30;;;;;;5094783;28;20036;-70
2021/01/03 12:26:43;;;;;;;2.80;1.42;;;4.30;91.30;;;;;;5094922;28;20043;-70
2021/01/03 12:29:13;;;;;;;2.67;1.30;;;4.30;91.30;;;;;;5095171;28;20043;-70
2021/01/03 12:31:44;;;;;;;3.08;1.10;;;4.30;91.20;;;;;;5095243;28;20040;-70
2021/01/03 12:34:11;;;;;;;2.22;1.33;;;4.30;91.20;;;;;;5076399;28;20051;-72
2021/01/03 12:36:37;;;;;;;2.90;1.35;;;4.30;91.20;;;;;;5094676;28;20056;-71
2021/01/03 12:39:05;;;;;;;3.28;1.48;;;4.30;91.20;;;;;;5094686;28;20040;-71
2021/01/03 12:41:32;;;;;;;4.15;1.85;;;4.40;91.20;;;;;;5076425;28;20487;-71
2021/01/03 12:43:57;;;;;;;3.10;1.42;;;4.50;91.20;;;;;;5095131;28;20047;-71
2021/01/03 12:46:33;;;;;;;3.15;1.35;;;4.40;91.10;;;;;;5094824;28;20032;-72
2021/01/03 12:48:59;;;;;;;4.28;1.85;;;4.50;91.10;;;;;;5094441;28;20492;-72
2021/01/03 12:51:25;;;;;;;4.20;1.70;;;4.40;91.10;;;;;;5094756;28;20042;-71
2021/01/03 12:53:52;;;;;;;2.55;1.38;;;4.50;91.10;;;;;;5093761;28;20040;-71
2021/01/03 12:56:22;;;;;;;4.28;2.00;;;4.50;91.10;;;;;;5094960;28;20028;-72
2021/01/03 12:58:49;;;;;;;4.65;2.25;;;4.50;91.10;;;;;;5094830;28;20054;-71
2021/01/03 13:01:15;;;;;;;3.72;1.67;;;4.50;91.00;;;;;;5094670;28;20055;-70
2021/01/03 13:03:41;;;;;;;3.70;1.77;;;4.50;91.00;;;;;;5094685;28;20051;-71
2021/01/03 13:06:07;;;;;;;4.57;2.05;;;4.50;91.00;;;;;;5094239;28;20032;-71
2021/01/03 13:08:32;;;;;;;3.22;1.52;;;4.60;91.00;;;;;;5094337;28;20068;-71
2021/01/03 13:10:58;;;;;;;5.10;2.25;;;4.60;91.00;;;;;;5094379;28;20127;-71
2021/01/03 13:13:24;;;;;;;4.70;1.95;;;4.60;91.00;;;;;;5094205;28;20036;-71
2021/01/03 13:15:50;;;;;;;4.38;1.85;;;4.60;90.90;;;;;;5094171;28;20028;-71
2021/01/03 13:18:15;;;;;;;5.00;2.00;;;4.70;91.00;;;;;;5094377;28;20036;-72
2021/01/03 13:20:41;;;;;;;4.35;2.05;;;4.60;90.90;;;;;;5094512;28;20135;-72